Highland Home, Alabama
Current Conditions -  °F | °C
As of 8:53 PM on Friday 21 Nov 2014 (Local Time) from KTOI Reporting Station
Clear Clear  
Wind Chill: 44°   Ceiling: Unl
Heat Index: 44°   Visibility: 10mi
Dew Point: 40°   Wind: 3mph
Humidity: 85%   Direction: 60°ENE
Pressure: 30.36"   Gusts: NA
Location:  31.95°N, 86.31°W
Report Text: KTOI 220253Z AUTO 06003KT 10SM CLR 07/04 A3036 RMK AO2 SLP281 T00670044 50008
Loading
Personal Weather Stations






























Interactive Weather Map New forecast layout! Learn more

10-Day Weather Forecast

Advertisements
Track Severe Weather on mobile